Time;durP1;ratioP1;P1;durP2;ratioP2;P2;SDS_P1;SDS_P2;PMS_P1;PMS_P2;Temp;Humidity;BMP_temperature;BMP_pressure;BME280_temperature;BME280_humidity;BME280_pressure;Samples;Min_cycle;Max_cycle;Signal;HPM_P1;HPM_P2
2023/01/29 00:02:24;;;;;;;13.10;6.55;;;4.00;99.90;;;;;;5081276;28;20033;-76
2023/01/29 00:04:52;;;;;;;9.98;5.60;;;4.20;99.90;;;;;;5085157;28;20081;-76
2023/01/29 00:07:18;;;;;;;8.73;6.00;;;3.90;99.90;;;;;;5102726;28;20059;-76
2023/01/29 00:09:43;;;;;;;8.02;5.55;;;4.20;99.90;;;;;;5085250;28;20038;-75
2023/01/29 00:12:09;;;;;;;8.80;5.65;;;4.00;99.90;;;;;;5101737;28;20067;-75
2023/01/29 00:14:35;;;;;;;8.82;5.70;;;3.90;99.90;;;;;;5085681;28;20061;-75
2023/01/29 00:17:01;;;;;;;11.27;5.40;;;3.90;99.90;;;;;;5102052;28;20349;-75
2023/01/29 00:19:26;;;;;;;9.48;5.78;;;4.10;99.90;;;;;;5069329;28;20141;-76
2023/01/29 00:21:52;;;;;;;11.30;6.55;;;4.90;99.90;;;;;;5065780;28;20357;-76
2023/01/29 00:24:18;;;;;;;9.18;6.20;;;4.10;99.90;;;;;;5085642;28;20059;-76
2023/01/29 00:26:43;;;;;;;10.77;6.88;;;4.40;99.90;;;;;;5101975;28;20130;-76
2023/01/29 00:29:12;;;;;;;10.13;6.05;;;4.00;99.90;;;;;;5085476;28;20256;-77
2023/01/29 00:31:38;;;;;;;10.13;5.75;;;3.90;99.90;;;;;;5084168;28;20031;-76
2023/01/29 00:34:04;;;;;;;9.10;6.88;;;3.90;99.90;;;;;;5101903;28;20039;-76
2023/01/29 00:36:29;;;;;;;12.02;6.95;;;5.30;99.90;;;;;;5102202;28;20036;-76
2023/01/29 00:38:57;;;;;;;9.70;6.85;;;4.00;99.90;;;;;;5068072;28;20209;-76
2023/01/29 00:46:54;;;;;;;12.30;6.75;;;3.90;99.90;;;;;;5101461;28;20038;-76
2023/01/29 00:49:21;;;;;;;12.07;7.65;;;4.00;99.90;;;;;;5068804;28;20027;-76
2023/01/29 00:54:32;;;;;;;12.75;7.57;;;3.90;99.90;;;;;;5079599;28;20047;-76
2023/01/29 00:56:57;;;;;;;11.32;7.72;;;4.20;99.90;;;;;;5067551;28;20023;-76
2023/01/29 00:59:23;;;;;;;14.73;9.32;;;3.90;99.90;;;;;;5068069;28;20116;-76
2023/01/29 01:04:49;;;;;;;14.15;8.82;;;4.00;99.90;;;;;;5082147;28;20042;-77
2023/01/29 01:07:20;;;;;;;14.60;8.52;;;3.80;99.90;;;;;;5084472;28;20099;-76
2023/01/29 01:14:19;;;;;;;12.95;7.78;;;3.90;99.90;;;;;;4976817;28;20458;-76
2023/01/29 01:16:46;;;;;;;14.18;8.25;;;2.70;99.90;;;;;;4973851;28;20209;-76
2023/01/29 01:19:13;;;;;;;14.18;8.40;;;4.00;99.90;;;;;;5081482;28;20028;-75
2023/01/29 01:21:39;;;;;;;15.52;8.68;;;4.00;99.90;;;;;;5081247;28;20142;-75
2023/01/29 01:24:05;;;;;;;15.48;9.90;;;4.10;99.90;;;;;;5073112;28;20302;-75
2023/01/29 01:26:33;;;;;;;12.15;8.57;;;4.00;99.90;;;;;;5101392;28;20070;-75
2023/01/29 01:28:59;;;;;;;17.00;8.88;;;4.00;99.90;;;;;;5084298;28;20032;-76
2023/01/29 01:31:25;;;;;;;14.57;9.40;;;4.80;99.90;;;;;;5101497;28;20046;-75
2023/01/29 01:33:53;;;;;;;14.43;9.07;;;4.10;99.90;;;;;;5081652;28;20035;-75
2023/01/29 01:36:18;;;;;;;14.52;8.73;;;4.00;99.90;;;;;;5100424;28;20222;-75
2023/01/29 01:39:02;;;;;;;16.27;9.02;;;4.30;99.90;;;;;;5067638;28;20123;-76
2023/01/29 01:41:29;;;;;;;14.38;9.18;;;4.00;99.90;;;;;;5070092;28;20051;-75
2023/01/29 01:44:39;;;;;;;17.08;10.20;;;4.00;99.90;;;;;;5082160;28;20263;-76
2023/01/29 01:47:16;;;;;;;15.25;9.98;;;5.60;99.90;;;;;;5084721;28;20046;-75
2023/01/29 01:49:43;;;;;;;16.67;9.68;;;4.10;99.90;;;;;;5101149;28;20046;-75
2023/01/29 01:52:18;;;;;;;13.30;8.68;;;4.20;99.90;;;;;;5067865;28;20110;-76
2023/01/29 01:54:44;;;;;;;16.17;9.60;;;4.10;99.90;;;;;;5082699;28;20058;-77
2023/01/29 01:57:17;;;;;;;18.33;9.52;;;4.40;99.90;;;;;;5100432;28;20039;-76
2023/01/29 01:59:57;;;;;;;17.45;10.43;;;3.80;99.90;;;;;;5083717;28;20042;-76
2023/01/29 02:10:11;;;;;;;16.90;10.50;;;3.50;99.90;;;;;;5091926;28;20042;-76
2023/01/29 02:12:37;;;;;;;16.02;10.70;;;2.10;99.90;;;;;;4985720;28;20044;-76
2023/01/29 02:15:13;;;;;;;16.23;10.00;;;4.10;99.90;;;;;;5081623;28;20096;-76
2023/01/29 02:17:39;;;;;;;17.10;9.75;;;4.20;99.90;;;;;;5085982;28;20047;-76
2023/01/29 02:20:07;;;;;;;16.05;10.20;;;6.40;99.90;;;;;;5084806;28;20454;-76
2023/01/29 02:23:04;;;;;;;16.70;10.77;;;4.10;99.90;;;;;;5087435;28;20046;-76
2023/01/29 02:25:41;;;;;;;16.42;10.48;;;4.20;99.90;;;;;;5085712;28;20040;-75
2023/01/29 02:28:31;;;;;;;15.18;10.63;;;4.50;99.90;;;;;;5066482;28;20103;-75
2023/01/29 02:31:19;;;;;;;17.63;10.63;;;4.20;99.90;;;;;;5082658;28;20039;-75
2023/01/29 02:33:44;;;;;;;17.33;11.48;;;4.20;99.90;;;;;;5083945;28;20132;-75
2023/01/29 02:36:26;;;;;;;19.38;10.98;;;4.20;99.90;;;;;;5087264;28;20042;-75
2023/01/29 02:38:55;;;;;;;19.75;12.40;;;4.10;99.90;;;;;;5102630;28;20056;-75
2023/01/29 02:41:26;;;;;;;21.25;13.25;;;4.10;99.90;;;;;;5103937;28;20046;-75
2023/01/29 02:44:02;;;;;;;19.58;12.52;;;4.30;99.90;;;;;;5084124;28;20104;-75
2023/01/29 02:46:51;;;;;;;18.58;12.07;;;4.10;99.90;;;;;;5102718;28;20023;-76
2023/01/29 02:50:09;;;;;;;;;;;;;;;;;;;;;
2023/01/29 02:53:17;;;;;;;;;;;;;;;;;;;;;
2023/01/29 02:56:30;;;;;;;23.40;13.85;;;2.60;99.90;;;;;;5100401;28;20111;-77
2023/01/29 02:59:09;;;;;;;22.92;13.68;;;2.70;99.90;;;;;;5082809;28;20024;-75
2023/01/29 03:02:03;;;;;;;22.98;14.75;;;4.10;99.90;;;;;;5083020;28;20052;-76
2023/01/29 03:04:41;;;;;;;22.42;14.38;;;4.40;99.90;;;;;;5087214;28;20071;-76
2023/01/29 03:07:41;;;;;;;24.08;14.98;;;4.10;99.90;;;;;;5117378;28;20110;-76
2023/01/29 03:10:33;;;;;;;27.05;16.45;;;4.50;99.90;;;;;;5101197;28;20067;-75
2023/01/29 03:13:11;;;;;;;30.77;18.77;;;4.30;99.90;;;;;;5085753;28;20435;-75
2023/01/29 03:15:45;;;;;;;;;;;4.20;99.90;;;;;;5085169;28;20043;-76
2023/01/29 03:18:29;;;;;;;25.45;15.90;;;4.20;99.90;;;;;;5103281;28;19911;-76
2023/01/29 03:21:49;;;;;;;26.48;16.52;;;4.30;99.90;;;;;;5086041;28;20055;-76
2023/01/29 03:33:17;;;;;;;29.80;18.35;;;4.10;99.90;;;;;;5070671;28;20717;-75
2023/01/29 03:36:15;;;;;;;26.60;16.45;;;4.10;99.90;;;;;;5100341;28;20074;-77
2023/01/29 03:38:42;;;;;;;24.90;15.40;;;4.10;99.90;;;;;;5102405;28;20048;-76
2023/01/29 03:41:32;;;;;;;26.23;15.70;;;4.50;99.90;;;;;;5085180;28;20092;-76
2023/01/29 03:44:14;;;;;;;23.85;16.25;;;4.10;99.90;;;;;;5084871;28;20040;-75
2023/01/29 03:47:05;;;;;;;29.88;18.00;;;4.30;99.90;;;;;;5081622;28;20073;-75
2023/01/29 03:49:53;;;;;;;24.65;15.77;;;5.80;99.90;;;;;;5082599;28;20035;-75
2023/01/29 03:53:11;;;;;;;24.38;15.82;;;4.20;99.90;;;;;;5081057;28;20050;-76
2023/01/29 03:55:45;;;;;;;26.63;16.17;;;5.10;99.90;;;;;;5046420;28;20055;-74
2023/01/29 03:58:14;;;;;;;;;;;4.20;99.90;;;;;;5085088;28;20019;-75
2023/01/29 04:00:57;;;;;;;27.20;15.98;;;4.30;99.90;;;;;;5084364;28;19978;-75
2023/01/29 04:03:42;;;;;;;23.90;15.52;;;4.20;99.90;;;;;;5101811;28;20035;-75
2023/01/29 04:06:13;;;;;;;25.98;16.52;;;4.20;99.90;;;;;;5099521;28;20024;-77
2023/01/29 04:08:55;;;;;;;23.42;15.15;;;4.30;99.90;;;;;;5084792;28;20229;-76
2023/01/29 04:11:26;;;;;;;29.35;17.05;;;4.20;99.90;;;;;;5084365;28;20044;-76
2023/01/29 04:13:52;;;;;;;23.20;15.48;;;4.20;99.90;;;;;;5101535;28;20074;-76
2023/01/29 04:16:34;;;;;;;30.17;17.90;;;4.50;99.90;;;;;;5082881;28;20240;-77
2023/01/29 04:19:00;;;;;;;28.20;16.95;;;4.80;99.90;;;;;;5101556;28;20222;-77
2023/01/29 04:21:26;;;;;;;30.25;18.23;;;4.20;99.90;;;;;;5101036;28;20240;-77
2023/01/29 04:23:55;;;;;;;29.10;17.58;;;4.40;99.90;;;;;;5084559;28;20195;-77
2023/01/29 04:26:31;;;;;;;34.25;19.88;;;5.70;99.90;;;;;;5097334;28;20070;-76
2023/01/29 04:29:11;;;;;;;27.77;17.75;;;4.30;99.90;;;;;;5082152;28;20092;-76
2023/01/29 04:32:01;;;;;;;27.40;17.63;;;4.60;99.90;;;;;;5080662;28;20039;-75
2023/01/29 04:34:34;;;;;;;24.67;15.85;;;4.20;99.90;;;;;;5082931;28;20098;-75
2023/01/29 04:37:23;;;;;;;29.08;18.33;;;4.30;99.90;;;;;;5082472;28;20127;-76
2023/01/29 04:40:03;;;;;;;23.73;16.30;;;4.40;99.90;;;;;;5061252;28;20080;-75
2023/01/29 04:42:41;;;;;;;25.75;15.80;;;4.30;99.90;;;;;;5049021;28;20040;-76
2023/01/29 04:45:23;;;;;;;29.15;17.45;;;4.20;99.90;;;;;;5078488;28;20028;-75
2023/01/29 04:48:36;;;;;;;26.15;15.77;;;4.90;99.90;;;;;;5055664;28;20079;-75
2023/01/29 04:51:34;;;;;;;27.67;15.93;;;4.10;99.90;;;;;;5056166;28;20044;-75
2023/01/29 04:54:05;;;;;;;29.38;15.45;;;4.30;99.90;;;;;;5062033;28;20037;-75
2023/01/29 04:57:03;;;;;;;28.42;17.27;;;4.30;99.90;;;;;;5078493;28;20036;-74
2023/01/29 04:59:42;;;;;;;28.95;16.63;;;4.40;99.90;;;;;;5053376;28;20054;-76
2023/01/29 05:02:10;;;;;;;31.98;19.60;;;4.20;99.90;;;;;;5077869;28;20064;-75
2023/01/29 05:04:39;;;;;;;31.35;19.25;;;4.40;99.90;;;;;;5061697;28;20048;-75
2023/01/29 05:07:11;;;;;;;31.92;18.27;;;4.60;99.90;;;;;;5077311;28;20141;-75
2023/01/29 05:09:44;;;;;;;28.15;17.35;;;4.40;99.90;;;;;;5062820;28;20041;-74
2023/01/29 05:12:13;;;;;;;32.25;18.67;;;4.20;99.90;;;;;;5039315;28;20040;-73
2023/01/29 05:14:41;;;;;;;37.08;19.13;;;4.20;99.90;;;;;;5078217;28;20093;-73
2023/01/29 05:20:18;;;;;;;37.28;21.00;;;4.60;99.90;;;;;;5030765;28;20261;-75
2023/01/29 05:23:00;;;;;;;35.28;20.40;;;4.30;99.90;;;;;;5057667;28;20040;-75
2023/01/29 05:25:51;;;;;;;31.70;19.42;;;4.20;99.90;;;;;;5050735;28;20032;-72
2023/01/29 05:28:17;;;;;;;33.55;20.27;;;4.10;99.90;;;;;;5041258;28;20100;-75
2023/01/29 05:30:48;;;;;;;33.00;20.38;;;4.30;99.90;;;;;;5054743;28;20086;-74
2023/01/29 05:33:28;;;;;;;30.88;18.20;;;4.40;99.90;;;;;;5061200;28;20044;-75
2023/01/29 05:35:55;;;;;;;37.50;20.13;;;4.40;99.90;;;;;;5061219;28;20061;-76
2023/01/29 05:38:21;;;;;;;33.17;18.50;;;4.30;99.90;;;;;;5051180;28;20056;-75
2023/01/29 05:40:47;;;;;;;33.13;20.33;;;4.30;99.90;;;;;;5084516;28;20040;-75
2023/01/29 05:43:22;;;;;;;39.40;20.70;;;4.30;99.90;;;;;;5068810;28;20028;-75
2023/01/29 05:45:59;;;;;;;36.53;19.92;;;4.10;99.90;;;;;;5102008;28;20063;-75
2023/01/29 05:48:27;;;;;;;32.33;17.25;;;4.30;99.90;;;;;;5101920;28;20231;-75
2023/01/29 05:50:53;;;;;;;34.90;19.30;;;4.20;99.90;;;;;;5084361;28;20234;-75
2023/01/29 05:53:19;;;;;;;31.85;17.42;;;6.00;99.90;;;;;;5068320;28;20036;-74
2023/01/29 05:55:46;;;;;;;33.00;18.02;;;4.10;99.90;;;;;;5085311;28;20031;-75
2023/01/29 05:58:12;;;;;;;30.60;18.25;;;4.20;99.90;;;;;;5084563;28;20099;-75
2023/01/29 06:00:47;;;;;;;30.25;17.17;;;5.60;99.90;;;;;;5097866;28;20039;-75
2023/01/29 06:03:14;;;;;;;31.67;18.48;;;4.30;99.90;;;;;;5084867;28;20028;-74
2023/01/29 06:06:06;;;;;;;33.20;18.88;;;4.30;99.90;;;;;;5068144;28;20034;-76
2023/01/29 06:08:32;;;;;;;27.23;17.27;;;4.10;99.90;;;;;;5075270;28;20119;-75
2023/01/29 06:10:58;;;;;;;30.70;18.38;;;4.40;99.90;;;;;;5028469;28;20068;-76
2023/01/29 06:13:23;;;;;;;31.25;19.70;;;4.20;99.90;;;;;;5044507;28;20052;-75
2023/01/29 06:15:49;;;;;;;31.52;19.45;;;4.30;99.90;;;;;;5046293;28;20033;-75
2023/01/29 06:18:15;;;;;;;30.48;18.20;;;4.30;99.90;;;;;;5079923;28;20048;-75
2023/01/29 06:20:40;;;;;;;31.05;18.50;;;4.10;99.90;;;;;;5045759;28;20071;-75
2023/01/29 06:23:06;;;;;;;35.13;19.48;;;5.10;99.90;;;;;;5046592;28;20032;-76
2023/01/29 06:25:32;;;;;;;34.13;17.88;;;4.40;99.90;;;;;;5062975;28;20102;-75
2023/01/29 06:27:57;;;;;;;33.00;18.15;;;4.90;99.90;;;;;;5045996;28;20251;-75
2023/01/29 06:30:30;;;;;;;31.65;20.00;;;4.20;99.90;;;;;;5013715;28;20089;-75
2023/01/29 06:33:24;;;;;;;39.17;21.73;;;4.20;99.90;;;;;;5046327;28;20094;-75
2023/01/29 06:35:56;;;;;;;35.13;19.98;;;4.90;99.90;;;;;;5026491;28;20060;-76
2023/01/29 06:38:22;;;;;;;39.83;22.65;;;4.50;99.90;;;;;;5063956;28;20051;-76
2023/01/29 06:40:48;;;;;;;35.25;21.23;;;4.40;99.90;;;;;;5084044;28;20039;-76
2023/01/29 06:43:14;;;;;;;38.47;21.13;;;4.70;99.90;;;;;;5065713;28;20214;-75
2023/01/29 06:45:55;;;;;;;36.33;20.98;;;4.40;99.90;;;;;;5064261;28;20028;-76
2023/01/29 06:48:22;;;;;;;38.90;21.73;;;5.40;99.90;;;;;;5099254;28;20299;-75
2023/01/29 06:50:48;;;;;;;41.17;23.58;;;4.30;99.90;;;;;;5099759;28;20161;-75
2023/01/29 06:53:15;;;;;;;42.28;23.50;;;4.50;99.90;;;;;;5100868;28;20023;-75
2023/01/29 06:55:53;;;;;;;41.53;24.48;;;4.50;99.90;;;;;;5082868;28;20073;-74
2023/01/29 07:06:18;;;;;;;45.22;24.92;;;6.40;99.90;;;;;;4903159;29;20566;-75
2023/01/29 07:09:00;;;;;;;45.17;26.00;;;4.40;99.90;;;;;;4885826;29;20611;-75
2023/01/29 07:11:25;;;;;;;38.83;23.55;;;4.70;99.90;;;;;;4904690;29;20155;-76
2023/01/29 07:13:51;;;;;;;42.15;26.15;;;4.40;99.90;;;;;;5031686;28;20037;-75
2023/01/29 07:16:17;;;;;;;39.97;24.10;;;4.50;99.90;;;;;;5007922;28;20021;-75
2023/01/29 07:18:43;;;;;;;38.22;23.95;;;4.50;99.90;;;;;;5081470;28;20032;-76
2023/01/29 07:21:09;;;;;;;42.78;26.40;;;4.30;99.90;;;;;;5100221;28;20307;-76
2023/01/29 07:23:35;;;;;;;42.38;24.63;;;4.50;99.90;;;;;;5082640;28;20089;-76
2023/01/29 07:26:05;;;;;;;44.35;26.33;;;4.30;99.90;;;;;;5099594;28;20032;-75
2023/01/29 07:28:34;;;;;;;40.35;23.73;;;4.30;99.90;;;;;;5080217;28;20029;-76
2023/01/29 07:31:00;;;;;;;39.92;23.70;;;5.90;99.90;;;;;;5079774;28;20036;-75
2023/01/29 07:33:26;;;;;;;37.13;23.55;;;4.50;99.90;;;;;;5062006;28;20246;-75
2023/01/29 07:35:52;;;;;;;38.45;24.00;;;4.40;99.90;;;;;;5061953;28;20093;-74
2023/01/29 07:38:18;;;;;;;37.88;24.45;;;4.30;99.90;;;;;;5076230;28;20063;-74
2023/01/29 07:40:46;;;;;;;39.95;23.02;;;4.40;99.90;;;;;;5061815;28;20052;-76
2023/01/29 07:43:12;;;;;;;39.65;23.77;;;4.90;99.90;;;;;;5085823;28;20095;-77
2023/01/29 07:45:38;;;;;;;37.50;22.42;;;4.30;99.90;;;;;;5064958;28;20031;-75
2023/01/29 07:51:20;;;;;;;37.20;23.42;;;4.30;99.90;;;;;;5009021;28;20045;-74
2023/01/29 07:53:46;;;;;;;38.35;23.42;;;5.00;99.90;;;;;;5066411;28;20051;-74
2023/01/29 07:56:12;;;;;;;39.42;25.85;;;4.40;99.90;;;;;;5081654;28;20028;-75
2023/01/29 07:58:37;;;;;;;35.17;23.00;;;6.40;99.90;;;;;;5080233;28;20039;-75
2023/01/29 08:01:07;;;;;;;41.28;23.75;;;5.80;99.90;;;;;;5097925;28;20338;-75
2023/01/29 08:03:32;;;;;;;40.03;24.20;;;4.50;99.90;;;;;;5098199;28;20103;-75
2023/01/29 08:05:58;;;;;;;43.25;24.63;;;4.40;99.90;;;;;;5064363;28;20059;-74
2023/01/29 08:08:24;;;;;;;37.05;22.55;;;4.50;99.90;;;;;;5076698;28;20028;-75
2023/01/29 08:11:19;;;;;;;38.92;23.15;;;4.60;99.90;;;;;;5080149;28;20038;-75
2023/01/29 08:13:45;;;;;;;41.20;26.27;;;4.40;99.90;;;;;;5038359;28;20272;-75
2023/01/29 08:16:11;;;;;;;41.95;25.17;;;4.40;99.90;;;;;;5062576;28;20041;-76
2023/01/29 08:18:37;;;;;;;38.13;24.15;;;4.60;99.90;;;;;;5085292;28;20327;-76
2023/01/29 08:21:03;;;;;;;37.47;24.10;;;4.50;99.90;;;;;;5082295;28;20043;-76
2023/01/29 08:23:31;;;;;;;34.45;23.48;;;4.50;99.90;;;;;;5097504;28;20032;-75
2023/01/29 08:25:57;;;;;;;36.17;23.33;;;4.80;99.90;;;;;;5064248;28;20122;-75
2023/01/29 08:31:39;;;;;;;41.78;26.38;;;4.60;99.90;;;;;;5073156;28;20036;-76
2023/01/29 08:34:04;;;;;;;37.90;24.33;;;5.40;99.90;;;;;;5081664;28;20065;-75
2023/01/29 08:36:33;;;;;;;37.63;24.55;;;4.10;99.90;;;;;;5081505;28;20048;-74
2023/01/29 08:38:59;;;;;;;38.20;23.92;;;4.70;99.90;;;;;;5096555;28;20047;-75
2023/01/29 08:41:39;;;;;;;43.50;26.83;;;4.60;99.90;;;;;;5079590;28;20048;-77
2023/01/29 08:48:26;;;;;;;41.83;25.83;;;5.20;99.90;;;;;;4994841;28;20317;-74
2023/01/29 08:50:59;;;;;;;47.38;28.50;;;4.60;99.90;;;;;;5075748;28;20059;-74
2023/01/29 08:53:25;;;;;;;46.13;29.35;;;5.10;99.90;;;;;;5061207;28;20036;-75
2023/01/29 08:55:53;;;;;;;51.08;30.45;;;4.50;99.90;;;;;;5093634;28;20035;-75
2023/01/29 08:58:22;;;;;;;47.33;27.27;;;4.60;99.90;;;;;;5075228;28;20028;-74
2023/01/29 09:00:50;;;;;;;44.92;28.98;;;4.50;99.90;;;;;;5061135;28;20028;-74
2023/01/29 09:03:16;;;;;;;43.90;28.63;;;4.70;99.90;;;;;;5093544;28;20030;-74
2023/01/29 09:05:42;;;;;;;42.22;27.70;;;4.60;99.90;;;;;;5071598;28;20021;-68
2023/01/29 09:08:08;;;;;;;46.22;27.55;;;4.50;99.90;;;;;;5075718;28;20032;-75
2023/01/29 09:10:34;;;;;;;46.78;28.52;;;4.50;99.90;;;;;;5061561;28;20047;-73
2023/01/29 09:13:00;;;;;;;44.83;27.23;;;4.70;99.90;;;;;;5082190;28;20031;-73
2023/01/29 09:15:26;;;;;;;49.83;30.23;;;4.60;99.90;;;;;;5098995;28;20028;-75
2023/01/29 09:17:52;;;;;;;45.17;28.08;;;4.70;99.90;;;;;;5102727;28;20039;-74
2023/01/29 09:20:23;;;;;;;51.83;28.85;;;4.60;99.90;;;;;;5085636;28;20086;-75
2023/01/29 09:22:52;;;;;;;44.97;27.90;;;4.70;99.90;;;;;;5083797;28;20040;-74
2023/01/29 09:25:18;;;;;;;45.15;29.02;;;4.80;99.90;;;;;;5100036;28;20028;-74
2023/01/29 09:27:43;;;;;;;44.40;26.80;;;4.70;99.90;;;;;;5077231;28;20043;-74
2023/01/29 09:30:10;;;;;;;46.38;29.08;;;4.80;99.90;;;;;;5075221;28;20028;-74
2023/01/29 09:32:35;;;;;;;48.88;28.98;;;4.80;99.90;;;;;;5076424;28;20036;-74
2023/01/29 09:35:01;;;;;;;43.25;25.17;;;5.00;99.90;;;;;;5092399;28;20052;-74
2023/01/29 09:37:27;;;;;;;43.65;27.30;;;4.90;99.90;;;;;;5049520;28;20031;-74
2023/01/29 09:39:52;;;;;;;45.67;28.45;;;4.90;99.90;;;;;;5081837;28;20060;-74
2023/01/29 09:42:27;;;;;;;46.40;27.58;;;4.80;99.90;;;;;;5084430;28;20323;-73
2023/01/29 09:45:05;;;;;;;44.15;27.80;;;4.90;99.90;;;;;;5101439;28;20032;-73
2023/01/29 09:47:34;;;;;;;41.90;26.40;;;4.80;99.90;;;;;;5083664;28;20036;-74
2023/01/29 09:50:27;;;;;;;42.88;25.50;;;4.90;99.90;;;;;;5084227;28;20035;-75
2023/01/29 09:52:58;;;;;;;43.45;26.58;;;5.00;99.90;;;;;;5087919;28;20047;-74
2023/01/29 09:55:48;;;;;;;39.53;25.15;;;5.10;99.90;;;;;;5083316;28;20106;-74
2023/01/29 09:58:33;;;;;;;46.88;26.52;;;5.00;99.90;;;;;;5100853;28;20116;-74
2023/01/29 10:01:12;;;;;;;41.65;24.45;;;4.90;99.90;;;;;;5098998;28;20032;-74
2023/01/29 10:03:49;;;;;;;47.35;25.80;;;5.30;99.90;;;;;;5082685;28;20265;-74
2023/01/29 10:06:27;;;;;;;38.13;24.50;;;5.00;99.90;;;;;;5084048;28;20372;-75
2023/01/29 10:09:30;;;;;;;39.40;24.85;;;5.10;99.90;;;;;;5100343;28;20044;-74
2023/01/29 10:12:08;;;;;;;45.83;26.88;;;5.10;99.90;;;;;;5095968;28;20073;-75
2023/01/29 10:14:46;;;;;;;37.05;23.05;;;4.90;99.90;;;;;;5097810;28;20510;-74
2023/01/29 10:18:01;;;;;;;46.38;28.10;;;5.00;99.90;;;;;;5082193;28;20028;-74
2023/01/29 10:20:56;;;;;;;44.28;26.45;;;5.00;99.90;;;;;;5061086;28;20055;-74
2023/01/29 10:23:50;;;;;;;43.70;26.83;;;4.90;99.90;;;;;;5098438;28;20249;-74
2023/01/29 10:26:22;;;;;;;44.65;27.38;;;5.00;99.90;;;;;;5100510;28;20047;-74
2023/01/29 10:28:56;;;;;;;45.17;25.52;;;5.10;99.90;;;;;;5098206;28;20035;-75
2023/01/29 10:31:31;;;;;;;47.83;27.33;;;5.00;99.90;;;;;;5062359;28;20036;-74
2023/01/29 10:34:13;;;;;;;48.22;27.45;;;5.20;99.90;;;;;;5082868;28;20046;-74
2023/01/29 10:36:47;;;;;;;45.28;26.10;;;5.20;99.90;;;;;;5081093;28;20035;-75
2023/01/29 10:39:13;;;;;;;46.13;26.92;;;5.60;99.90;;;;;;5081946;28;20246;-74
2023/01/29 10:41:51;;;;;;;49.53;27.27;;;5.10;99.90;;;;;;5080904;28;20050;-74
2023/01/29 10:44:55;;;;;;;48.53;27.70;;;5.20;99.90;;;;;;5099613;28;20176;-73
2023/01/29 10:47:43;;;;;;;52.05;30.42;;;5.20;99.90;;;;;;5035968;28;20119;-74
2023/01/29 10:50:27;;;;;;;47.22;27.08;;;5.00;99.90;;;;;;5077506;28;20040;-74
2023/01/29 10:53:36;;;;;;;52.80;28.30;;;5.00;99.90;;;;;;5081604;28;20043;-75
2023/01/29 10:56:32;;;;;;;47.38;25.80;;;7.20;99.90;;;;;;5078072;28;20067;-74
2023/01/29 10:59:07;;;;;;;56.38;32.25;;;5.10;99.90;;;;;;5096675;28;20030;-74
2023/01/29 11:01:32;;;;;;;52.92;30.05;;;5.00;99.90;;;;;;5095756;28;20336;-77
2023/01/29 11:04:05;;;;;;;46.83;27.30;;;5.40;99.90;;;;;;5065697;28;20045;-75
2023/01/29 11:06:32;;;;;;;52.00;29.58;;;5.10;99.90;;;;;;5079971;28;20046;-75
2023/01/29 11:09:22;;;;;;;53.55;30.33;;;5.20;99.90;;;;;;5082776;28;20123;-74
2023/01/29 11:11:48;;;;;;;55.97;31.23;;;5.10;99.90;;;;;;5079225;28;20207;-74
2023/01/29 11:14:54;;;;;;;51.75;28.45;;;5.10;99.90;;;;;;5070695;28;20138;-75
2023/01/29 11:17:24;;;;;;;55.15;29.77;;;5.10;99.90;;;;;;4985462;28;20040;-73
2023/01/29 11:19:51;;;;;;;52.80;27.75;;;5.10;99.90;;;;;;5000996;28;20101;-73
2023/01/29 11:22:19;;;;;;;50.55;28.52;;;5.20;99.90;;;;;;5050571;28;20083;-74
2023/01/29 11:25:15;;;;;;;49.10;28.85;;;6.90;99.90;;;;;;5098651;28;20036;-74
2023/01/29 11:27:51;;;;;;;46.58;25.55;;;5.30;99.90;;;;;;5081079;28;20051;-75
2023/01/29 11:30:38;;;;;;;45.53;24.98;;;5.40;99.90;;;;;;5098209;28;20230;-74
2023/01/29 11:33:21;;;;;;;50.33;28.10;;;4.90;99.90;;;;;;5096213;28;20023;-73
2023/01/29 11:35:46;;;;;;;47.92;28.45;;;5.40;99.90;;;;;;5078075;28;20353;-74
2023/01/29 11:38:26;;;;;;;44.85;25.65;;;6.20;99.90;;;;;;5082803;28;20046;-74
2023/01/29 11:41:03;;;;;;;49.15;28.17;;;5.40;99.90;;;;;;5078340;28;20126;-74
2023/01/29 11:43:30;;;;;;;52.75;28.52;;;5.40;99.90;;;;;;5061381;28;20047;-74
2023/01/29 11:46:16;;;;;;;40.60;23.42;;;5.40;99.90;;;;;;5076342;28;20353;-73
2023/01/29 11:48:50;;;;;;;43.60;23.58;;;5.40;99.90;;;;;;5059406;28;20304;-73
2023/01/29 11:51:32;;;;;;;45.95;25.77;;;5.60;99.90;;;;;;5061919;28;20028;-75
2023/01/29 11:54:01;;;;;;;39.42;21.63;;;5.30;99.90;;;;;;5075220;28;20040;-75
2023/01/29 11:56:41;;;;;;;42.05;25.95;;;5.60;99.90;;;;;;5077562;28;20065;-74
2023/01/29 11:59:30;;;;;;;42.80;22.25;;;5.40;99.90;;;;;;5078383;28;20323;-73
2023/01/29 12:02:05;;;;;;;45.70;25.38;;;5.60;99.90;;;;;;5045941;28;20044;-74
2023/01/29 12:04:31;;;;;;;44.10;24.75;;;5.60;99.90;;;;;;5060641;28;20028;-74
2023/01/29 12:06:57;;;;;;;45.97;24.77;;;5.60;99.90;;;;;;5015746;28;20039;-73
2023/01/29 12:09:28;;;;;;;46.03;25.40;;;5.50;99.90;;;;;;5043732;28;20055;-74
2023/01/29 12:11:54;;;;;;;49.83;26.92;;;5.40;99.90;;;;;;5077556;28;20113;-72
2023/01/29 12:14:32;;;;;;;38.75;23.90;;;5.50;99.90;;;;;;5044638;28;20036;-74
2023/01/29 12:17:18;;;;;;;44.05;23.95;;;5.50;99.90;;;;;;5073674;28;20037;-74
2023/01/29 12:19:53;;;;;;;41.10;23.15;;;6.00;99.90;;;;;;5043707;28;20028;-74
2023/01/29 12:22:25;;;;;;;;;;;5.70;99.90;;;;;;5073462;28;20593;-74
2023/01/29 12:24:58;;;;;;;43.22;25.10;;;5.50;99.90;;;;;;5058019;28;19920;-73
2023/01/29 12:27:28;;;;;;;44.15;24.27;;;5.60;99.90;;;;;;5077309;28;20072;-74
2023/01/29 12:30:33;;;;;;;46.72;27.98;;;5.60;99.90;;;;;;5052933;28;20043;-74
2023/01/29 12:33:20;;;;;;;42.25;25.00;;;5.50;99.90;;;;;;5036371;28;20093;-74
2023/01/29 12:35:54;;;;;;;48.42;27.10;;;5.70;99.90;;;;;;5059156;28;20335;-74
2023/01/29 12:38:25;;;;;;;44.00;24.77;;;5.60;99.90;;;;;;5050817;28;20099;-74
2023/01/29 12:40:57;;;;;;;41.90;24.08;;;5.50;99.90;;;;;;5069477;28;20052;-75
2023/01/29 12:43:36;;;;;;;45.22;26.30;;;5.40;99.90;;;;;;5082028;28;20043;-76
2023/01/29 12:46:05;;;;;;;40.00;23.73;;;5.60;99.90;;;;;;5096780;28;20038;-75
2023/01/29 12:48:35;;;;;;;40.70;23.52;;;5.40;99.90;;;;;;5081513;28;20046;-75
2023/01/29 12:51:11;;;;;;;41.15;23.27;;;5.60;99.90;;;;;;5099386;28;20578;-74
2023/01/29 12:53:46;;;;;;;41.88;25.10;;;7.30;99.90;;;;;;5079714;28;20035;-74
2023/01/29 12:56:21;;;;;;;;;;;5.60;99.90;;;;;;5100622;28;20164;-75
2023/01/29 12:58:54;;;;;;;36.33;22.60;;;5.60;99.90;;;;;;5081679;28;19912;-75
2023/01/29 13:01:35;;;;;;;44.00;24.48;;;6.00;99.90;;;;;;5099628;28;20035;-75
2023/01/29 13:04:29;;;;;;;41.28;24.00;;;5.50;99.90;;;;;;5081733;28;20127;-75
2023/01/29 13:07:15;;;;;;;48.20;24.38;;;5.30;99.90;;;;;;5083096;28;20371;-74
2023/01/29 13:09:47;;;;;;;42.08;23.50;;;5.50;99.90;;;;;;5080606;28;20035;-74
2023/01/29 13:12:16;;;;;;;41.08;23.23;;;5.80;99.90;;;;;;5084304;28;20208;-75
2023/01/29 13:14:56;;;;;;;45.00;26.42;;;5.50;99.90;;;;;;5093660;28;20046;-76
2023/01/29 13:17:33;;;;;;;49.20;27.70;;;5.60;99.90;;;;;;5081169;28;20261;-75
2023/01/29 13:20:27;;;;;;;46.33;28.60;;;5.40;99.90;;;;;;5082818;28;20023;-76
2023/01/29 13:22:55;;;;;;;39.17;24.27;;;5.40;99.90;;;;;;5096909;28;20067;-75
2023/01/29 13:25:21;;;;;;;46.03;25.77;;;5.30;99.90;;;;;;5098762;28;20019;-74
2023/01/29 13:27:48;;;;;;;43.42;24.40;;;5.70;99.90;;;;;;5099416;28;20032;-74
2023/01/29 13:30:31;;;;;;;42.30;24.08;;;5.60;99.90;;;;;;5064315;28;20019;-74
2023/01/29 13:33:09;;;;;;;43.05;23.25;;;5.50;99.90;;;;;;5082259;28;20371;-75
2023/01/29 13:35:42;;;;;;;42.30;22.92;;;5.40;99.90;;;;;;5097295;28;20269;-75
2023/01/29 13:38:28;;;;;;;42.80;23.95;;;5.40;99.90;;;;;;5099597;28;20145;-75
2023/01/29 13:40:58;;;;;;;;;;;5.40;99.90;;;;;;5098724;28;20087;-74
2023/01/29 13:43:34;;;;;;;41.58;22.67;;;5.40;99.90;;;;;;5098780;28;20214;-74
2023/01/29 13:46:45;;;;;;;45.95;26.73;;;5.50;99.90;;;;;;5096505;28;20115;-75
2023/01/29 13:49:33;;;;;;;43.28;24.10;;;5.60;99.90;;;;;;5073268;28;20043;-74
2023/01/29 13:52:39;;;;;;;42.80;23.65;;;5.40;99.90;;;;;;5075483;28;20047;-75
2023/01/29 13:55:08;;;;;;;;;;;5.50;99.90;;;;;;5102415;28;20288;-76
2023/01/29 13:57:45;;;;;;;42.63;24.20;;;5.30;99.90;;;;;;5096503;28;19919;-75
2023/01/29 14:00:29;;;;;;;39.63;23.17;;;5.40;99.90;;;;;;5082947;28;20082;-75
2023/01/29 14:03:10;;;;;;;36.55;22.35;;;3.40;99.90;;;;;;5089750;28;20047;-74
2023/01/29 14:08:59;;;;;;;40.40;23.77;;;5.50;99.90;;;;;;5076002;28;20051;-76
2023/01/29 14:11:55;;;;;;;37.63;22.33;;;5.00;99.90;;;;;;5093839;28;20040;-75
2023/01/29 14:14:53;;;;;;;36.83;21.50;;;7.90;99.90;;;;;;5088188;28;20035;-75
2023/01/29 14:17:25;;;;;;;36.58;21.20;;;5.40;99.90;;;;;;5074555;28;20067;-76
2023/01/29 14:20:03;;;;;;;41.42;23.45;;;5.60;99.90;;;;;;5097597;28;20035;-75
2023/01/29 14:22:30;;;;;;;41.78;24.08;;;5.60;99.90;;;;;;5080301;28;20035;-76